Time;durP1;ratioP1;P1;durP2;ratioP2;P2;SDS_P1;SDS_P2;PMS_P1;PMS_P2;Temp;Humidity;BMP_temperature;BMP_pressure;BME280_temperature;BME280_humidity;BME280_pressure;Samples;Min_cycle;Max_cycle;Signal;HPM_P1;HPM_P2
2021/09/06 00:00:07;;;;;;;1.83;1.67;;;10.10;99.90;;;;;;5018788;28;20059;-74
2021/09/06 00:02:32;;;;;;;5.55;3.35;;;10.10;99.90;;;;;;5042334;28;20117;-74
2021/09/06 00:04:58;;;;;;;4.97;2.65;;;10.10;99.90;;;;;;5028972;28;20120;-74
2021/09/06 00:07:24;;;;;;;3.65;2.05;;;10.10;99.90;;;;;;5034468;28;20148;-74
2021/09/06 00:09:56;;;;;;;4.20;2.92;;;10.00;99.90;;;;;;5039362;28;20045;-75
2021/09/06 00:12:22;;;;;;;2.03;1.65;;;10.10;99.90;;;;;;5016158;28;20045;-73
2021/09/06 00:14:47;;;;;;;4.07;2.13;;;10.00;99.90;;;;;;5012458;28;20478;-73
2021/09/06 00:17:13;;;;;;;1.90;1.70;;;10.00;99.90;;;;;;5035597;28;20042;-75
2021/09/06 00:19:39;;;;;;;7.47;2.58;;;10.00;99.90;;;;;;5025896;28;20041;-75
2021/09/06 00:22:05;;;;;;;;;;;9.90;99.90;;;;;;5022219;28;20038;-72
2021/09/06 00:24:33;;;;;;;4.35;3.15;;;9.90;99.90;;;;;;5028891;28;20293;-75
2021/09/06 00:26:59;;;;;;;3.60;2.90;;;9.90;99.90;;;;;;5052291;28;20127;-74
2021/09/06 00:29:24;;;;;;;5.47;2.50;;;9.90;99.90;;;;;;5024089;28;20148;-74
2021/09/06 00:31:50;;;;;;;2.88;2.25;;;9.90;99.90;;;;;;5028398;28;20046;-75
2021/09/06 00:34:16;;;;;;;2.60;2.22;;;9.80;99.90;;;;;;5025047;28;20136;-75
2021/09/06 00:36:41;;;;;;;3.75;2.83;;;9.80;99.90;;;;;;5046763;28;20054;-73
2021/09/06 00:39:07;;;;;;;3.67;2.42;;;9.80;99.90;;;;;;5033853;28;20368;-74
2021/09/06 00:41:33;;;;;;;1.33;1.20;;;9.90;99.90;;;;;;5019758;28;20384;-75
2021/09/06 00:43:59;;;;;;;2.38;1.80;;;9.70;99.90;;;;;;5045434;28;20037;-73
2021/09/06 00:46:24;;;;;;;8.73;3.55;;;9.70;99.90;;;;;;5029175;28;20042;-73
2021/09/06 00:48:50;;;;;;;2.17;1.55;;;9.70;99.90;;;;;;5021970;28;20038;-73
2021/09/06 00:51:16;;;;;;;3.15;2.47;;;9.70;99.90;;;;;;5038861;28;20051;-73
2021/09/06 00:53:42;;;;;;;;;;;9.60;99.90;;;;;;5053953;28;20052;-72
2021/09/06 00:56:08;;;;;;;2.45;2.05;;;9.60;99.90;;;;;;5034662;28;19921;-74
2021/09/06 00:58:36;;;;;;;2.00;1.85;;;9.60;99.90;;;;;;5004633;28;20188;-73
2021/09/06 01:01:02;;;;;;;1.17;1.08;;;9.60;99.90;;;;;;5022096;28;20057;-74
2021/09/06 01:03:27;;;;;;;4.43;2.50;;;9.50;99.90;;;;;;5023428;28;20479;-74
2021/09/06 01:05:53;;;;;;;5.00;2.13;;;9.50;99.90;;;;;;5028934;28;20455;-74
2021/09/06 01:08:19;;;;;;;6.03;1.80;;;9.50;99.90;;;;;;5022790;28;20084;-72
2021/09/06 01:10:44;;;;;;;2.58;2.03;;;9.50;99.90;;;;;;5035692;28;20048;-73
2021/09/06 01:13:10;;;;;;;3.08;2.63;;;9.40;99.90;;;;;;5047766;28;20128;-74
2021/09/06 01:15:36;;;;;;;1.90;1.75;;;9.40;99.90;;;;;;5019026;28;20045;-74
2021/09/06 01:18:02;;;;;;;2.15;1.95;;;9.40;99.90;;;;;;5032551;28;20041;-73
2021/09/06 01:20:27;;;;;;;2.78;1.83;;;9.50;99.90;;;;;;5046715;28;20038;-74
2021/09/06 01:22:53;;;;;;;5.25;2.22;;;9.40;99.90;;;;;;5015916;28;20045;-73
2021/09/06 01:25:19;;;;;;;3.17;2.45;;;9.40;99.90;;;;;;5053268;28;20473;-74
2021/09/06 01:27:45;;;;;;;5.88;2.50;;;9.30;99.90;;;;;;5041518;28;20124;-74
2021/09/06 01:30:12;;;;;;;3.00;2.47;;;9.30;99.90;;;;;;5070115;28;20366;-72
2021/09/06 01:32:38;;;;;;;4.57;2.15;;;9.30;99.90;;;;;;5033021;28;20429;-73
2021/09/06 01:35:05;;;;;;;2.88;2.28;;;9.30;99.90;;;;;;5036407;28;20046;-73
2021/09/06 01:37:30;;;;;;;3.67;2.92;;;9.30;99.90;;;;;;5018678;28;20078;-74
2021/09/06 01:39:56;;;;;;;3.28;1.95;;;9.30;99.90;;;;;;5040695;28;20075;-75
2021/09/06 01:42:23;;;;;;;2.85;2.20;;;9.30;99.90;;;;;;5038077;28;20083;-74
2021/09/06 01:44:49;;;;;;;5.72;2.75;;;9.20;99.90;;;;;;5037345;28;20368;-74
2021/09/06 01:47:14;;;;;;;2.15;1.85;;;9.20;99.90;;;;;;5002889;28;20114;-75
2021/09/06 01:49:40;;;;;;;3.17;2.35;;;9.10;99.90;;;;;;5034445;28;20473;-76
2021/09/06 01:52:06;;;;;;;4.68;3.05;;;9.10;99.90;;;;;;5028035;28;20037;-73
2021/09/06 01:54:32;;;;;;;3.65;1.63;;;9.00;99.90;;;;;;5030048;28;20032;-74
2021/09/06 01:56:57;;;;;;;5.32;2.17;;;9.00;99.90;;;;;;5039081;28;20060;-73
2021/09/06 01:59:23;;;;;;;1.40;1.30;;;9.00;99.90;;;;;;5043761;28;20502;-74
2021/09/06 02:01:49;;;;;;;2.58;2.35;;;9.00;99.90;;;;;;5024804;28;20069;-73
2021/09/06 02:04:14;;;;;;;3.28;2.80;;;8.90;99.90;;;;;;5025316;28;20480;-74
2021/09/06 02:06:41;;;;;;;4.75;3.05;;;8.90;99.90;;;;;;5031530;28;20037;-74
2021/09/06 02:09:07;;;;;;;2.10;1.90;;;8.90;99.90;;;;;;5024746;28;20049;-75
2021/09/06 02:11:32;;;;;;;1.73;1.55;;;8.90;99.90;;;;;;5017522;28;20149;-73
2021/09/06 02:13:59;;;;;;;8.43;3.10;;;8.80;99.90;;;;;;5023411;28;20046;-73
2021/09/06 02:16:25;;;;;;;2.90;2.60;;;8.80;99.90;;;;;;5008693;28;20395;-75
2021/09/06 02:18:51;;;;;;;7.45;2.30;;;8.80;99.90;;;;;;5029780;28;20056;-74
2021/09/06 02:21:17;;;;;;;6.30;2.83;;;8.90;99.90;;;;;;5024115;28;20040;-74
2021/09/06 02:23:43;;;;;;;3.13;2.80;;;8.70;99.90;;;;;;5027597;28;20038;-75
2021/09/06 02:26:08;;;;;;;4.03;2.97;;;8.70;99.90;;;;;;5002422;28;20464;-74
2021/09/06 02:28:34;;;;;;;2.10;1.77;;;8.70;99.90;;;;;;5019201;28;20052;-75
2021/09/06 02:31:00;;;;;;;2.42;1.90;;;8.70;99.90;;;;;;5028200;28;20549;-75
2021/09/06 02:33:26;;;;;;;5.90;3.00;;;8.70;99.90;;;;;;5038782;28;20064;-75
2021/09/06 02:35:51;;;;;;;4.03;2.20;;;8.70;99.90;;;;;;5036262;28;20077;-75
2021/09/06 02:38:17;;;;;;;4.15;2.10;;;8.70;99.90;;;;;;5039461;28;20114;-73
2021/09/06 02:40:43;;;;;;;4.60;2.85;;;8.70;99.90;;;;;;5034568;28;20084;-75
2021/09/06 02:43:09;;;;;;;2.55;2.25;;;8.60;99.90;;;;;;5018394;28;20037;-75
2021/09/06 02:45:34;;;;;;;7.25;3.53;;;8.60;99.90;;;;;;5023902;28;20068;-75
2021/09/06 02:48:00;;;;;;;4.35;2.97;;;8.50;99.90;;;;;;5015629;28;20100;-74
2021/09/06 02:50:26;;;;;;;3.45;2.35;;;8.50;99.90;;;;;;5002838;28;20493;-75
2021/09/06 02:52:53;;;;;;;8.55;4.07;;;8.50;99.90;;;;;;5026167;28;20037;-73
2021/09/06 02:55:19;;;;;;;4.30;2.72;;;8.50;99.90;;;;;;5036256;28;20049;-74
2021/09/06 02:57:44;;;;;;;;;;;8.60;99.90;;;;;;5023258;28;20061;-75
2021/09/06 03:00:11;;;;;;;3.63;3.03;;;8.60;99.90;;;;;;4998544;28;19917;-74
2021/09/06 03:02:37;;;;;;;4.78;2.83;;;8.60;99.90;;;;;;5009766;28;20117;-74
2021/09/06 03:05:03;;;;;;;4.63;2.72;;;8.60;99.90;;;;;;5030733;28;20519;-75
2021/09/06 03:07:30;;;;;;;6.10;2.58;;;8.60;99.90;;;;;;5022600;28;20172;-76
2021/09/06 03:09:56;;;;;;;4.63;3.17;;;8.50;99.90;;;;;;5024214;28;20143;-74
2021/09/06 03:12:21;;;;;;;6.28;3.13;;;8.50;99.90;;;;;;5010551;28;20523;-74
2021/09/06 03:14:47;;;;;;;6.03;4.35;;;8.60;99.90;;;;;;5018985;28;20045;-76
2021/09/06 03:17:13;;;;;;;4.63;3.83;;;8.50;99.90;;;;;;5042728;28;20107;-76
2021/09/06 03:19:38;;;;;;;5.03;3.80;;;8.50;99.90;;;;;;5045182;28;20111;-75
2021/09/06 03:22:04;;;;;;;2.33;2.13;;;8.40;99.90;;;;;;5034574;28;20490;-75
2021/09/06 03:24:30;;;;;;;3.03;2.45;;;8.40;99.90;;;;;;5020543;28;20037;-74
2021/09/06 03:26:55;;;;;;;3.55;2.75;;;8.50;99.90;;;;;;5025359;28;20222;-74
2021/09/06 03:29:21;;;;;;;2.03;1.85;;;8.40;99.90;;;;;;5006396;28;20084;-75
2021/09/06 03:31:47;;;;;;;3.95;3.35;;;8.40;99.90;;;;;;5033917;28;20038;-76
2021/09/06 03:34:12;;;;;;;5.75;2.60;;;8.40;99.90;;;;;;5026613;28;20437;-74
2021/09/06 03:36:38;;;;;;;7.03;2.13;;;8.40;99.90;;;;;;5048934;28;20386;-76
2021/09/06 03:39:04;;;;;;;2.95;2.35;;;8.40;99.90;;;;;;5034679;28;20041;-76
2021/09/06 03:41:31;;;;;;;8.18;3.35;;;8.40;99.90;;;;;;5019279;28;20041;-74
2021/09/06 03:43:56;;;;;;;3.95;3.00;;;8.40;99.90;;;;;;5034925;28;20049;-75
2021/09/06 03:46:22;;;;;;;2.53;2.13;;;8.40;99.90;;;;;;5042272;28;20099;-76
2021/09/06 03:48:48;;;;;;;6.10;2.92;;;8.30;99.90;;;;;;5023472;28;20048;-75
2021/09/06 03:51:13;;;;;;;4.40;2.42;;;8.30;99.90;;;;;;5038119;28;20054;-74
2021/09/06 03:53:39;;;;;;;4.47;2.33;;;8.30;99.90;;;;;;5035035;28;20429;-75
2021/09/06 03:56:05;;;;;;;3.45;3.15;;;8.30;99.90;;;;;;5038894;28;20047;-75
2021/09/06 03:58:30;;;;;;;3.80;3.22;;;8.30;99.90;;;;;;5021269;28;20103;-76
2021/09/06 04:00:56;;;;;;;7.97;2.75;;;8.20;99.90;;;;;;5038012;28;20060;-75
2021/09/06 04:03:22;;;;;;;7.00;3.00;;;8.20;99.90;;;;;;5033916;28;20463;-75
2021/09/06 04:05:47;;;;;;;4.78;2.78;;;8.20;99.90;;;;;;5019918;28;20467;-76
2021/09/06 04:08:13;;;;;;;8.35;3.17;;;8.20;99.90;;;;;;5023388;28;20128;-76
2021/09/06 04:10:39;;;;;;;4.25;2.55;;;8.20;99.90;;;;;;5031894;28;20057;-75
2021/09/06 04:13:04;;;;;;;2.63;2.22;;;8.20;99.90;;;;;;5032035;28;20049;-75
2021/09/06 04:15:30;;;;;;;6.40;3.45;;;8.20;99.90;;;;;;5023392;28;20432;-75
2021/09/06 04:17:56;;;;;;;4.70;3.08;;;8.20;99.90;;;;;;5018491;28;20049;-75
2021/09/06 04:20:22;;;;;;;3.63;3.33;;;8.30;99.90;;;;;;5043500;28;20061;-74
2021/09/06 04:22:48;;;;;;;6.93;3.17;;;8.30;99.90;;;;;;5013231;28;20180;-75
2021/09/06 04:25:14;;;;;;;5.55;4.68;;;8.30;99.90;;;;;;5036235;28;20045;-76
2021/09/06 04:27:40;;;;;;;5.38;3.13;;;8.40;99.90;;;;;;5025221;28;20119;-75
2021/09/06 04:30:06;;;;;;;14.05;4.75;;;8.30;99.90;;;;;;5030822;28;20049;-76
2021/09/06 04:32:32;;;;;;;5.22;3.80;;;8.40;99.90;;;;;;5036161;28;20045;-72
2021/09/06 04:34:58;;;;;;;5.82;4.45;;;8.50;99.90;;;;;;5037118;28;20122;-75
2021/09/06 04:37:24;;;;;;;8.90;3.50;;;8.60;99.90;;;;;;5029466;28;20050;-74
2021/09/06 04:39:49;;;;;;;7.90;5.25;;;8.70;99.90;;;;;;5037278;28;20045;-74
2021/09/06 04:42:15;;;;;;;5.07;2.95;;;8.70;99.90;;;;;;5034288;28;20095;-74
2021/09/06 04:44:41;;;;;;;6.68;3.40;;;8.80;99.90;;;;;;5036957;28;20068;-73
2021/09/06 04:47:07;;;;;;;;;;;8.80;99.90;;;;;;5033873;28;20445;-74
2021/09/06 04:49:33;;;;;;;6.40;3.80;;;8.80;99.90;;;;;;5035496;28;19917;-74
2021/09/06 04:51:58;;;;;;;7.38;4.70;;;8.80;99.90;;;;;;5018452;28;20038;-75
2021/09/06 04:54:24;;;;;;;4.85;3.92;;;8.70;99.90;;;;;;5036964;28;20049;-74
2021/09/06 04:56:50;;;;;;;6.95;3.50;;;8.70;99.90;;;;;;5033868;28;20051;-75
2021/09/06 04:59:21;;;;;;;8.60;3.45;;;8.70;99.90;;;;;;5032347;28;20423;-76
2021/09/06 05:01:48;;;;;;;9.55;4.65;;;8.70;99.90;;;;;;5018011;28;20049;-75
2021/09/06 05:04:14;;;;;;;4.13;2.92;;;8.70;99.90;;;;;;5030913;28;20033;-75
2021/09/06 05:06:40;;;;;;;;;;;8.70;99.90;;;;;;5021760;28;20080;-75
2021/09/06 05:09:05;;;;;;;14.43;4.97;;;8.70;99.90;;;;;;5039809;28;20153;-75
2021/09/06 05:11:32;;;;;;;12.23;5.97;;;8.70;99.90;;;;;;5036227;28;20498;-75
2021/09/06 05:13:58;;;;;;;9.30;5.25;;;8.80;99.90;;;;;;5039131;28;20090;-75
2021/09/06 05:16:24;;;;;;;;;;;8.70;99.90;;;;;;5039744;28;20045;-74
2021/09/06 05:18:50;;;;;;;10.23;4.20;;;8.80;99.90;;;;;;5036712;28;19917;-75
2021/09/06 05:21:15;;;;;;;4.82;3.58;;;8.80;99.90;;;;;;5037497;28;20064;-74
2021/09/06 05:23:41;;;;;;;6.88;4.95;;;8.80;99.90;;;;;;5030369;28;20079;-74
2021/09/06 05:26:07;;;;;;;10.52;4.03;;;8.90;99.90;;;;;;5032230;28;20124;-76
2021/09/06 05:28:33;;;;;;;5.82;4.05;;;8.80;99.90;;;;;;5034660;28;20052;-75
2021/09/06 05:31:02;;;;;;;6.90;3.85;;;8.90;99.90;;;;;;5029872;28;20060;-75
2021/09/06 05:33:28;;;;;;;10.20;5.70;;;8.90;99.90;;;;;;5037095;28;20044;-74
2021/09/06 05:35:54;;;;;;;4.53;3.70;;;8.90;99.90;;;;;;5040142;28;20048;-75
2021/09/06 05:38:19;;;;;;;5.40;4.40;;;9.00;99.90;;;;;;5048080;28;20466;-75
2021/09/06 05:40:45;;;;;;;7.68;4.55;;;9.00;99.90;;;;;;5040754;28;20052;-76
2021/09/06 05:43:11;;;;;;;6.10;3.40;;;9.00;99.90;;;;;;5037126;28;20079;-74
2021/09/06 05:45:36;;;;;;;5.57;4.30;;;9.00;99.90;;;;;;5027183;28;20430;-75
2021/09/06 05:48:03;;;;;;;8.40;3.67;;;9.10;99.90;;;;;;5038960;28;20045;-75
2021/09/06 05:50:29;;;;;;;7.70;4.03;;;9.20;99.90;;;;;;5032621;28;20048;-74
2021/09/06 05:52:55;;;;;;;6.53;3.28;;;9.20;99.90;;;;;;5022592;28;20037;-74
2021/09/06 05:55:21;;;;;;;4.53;3.30;;;9.30;99.90;;;;;;5022173;28;20093;-75
2021/09/06 05:57:47;;;;;;;5.40;4.03;;;9.30;99.90;;;;;;5018507;28;20064;-76
2021/09/06 06:00:13;;;;;;;5.10;3.65;;;9.40;99.90;;;;;;5027126;28;20486;-79
2021/09/06 06:02:38;;;;;;;7.38;5.72;;;9.50;99.90;;;;;;5003833;28;20038;-74
2021/09/06 06:05:05;;;;;;;6.93;3.72;;;9.60;99.90;;;;;;5019472;28;20041;-75
2021/09/06 06:07:31;;;;;;;6.55;3.67;;;9.70;99.90;;;;;;5020320;28;20071;-76
2021/09/06 06:09:57;;;;;;;3.13;2.88;;;9.80;99.90;;;;;;5038590;28;20041;-76
2021/09/06 06:12:26;;;;;;;9.20;4.63;;;9.90;99.90;;;;;;5018983;28;20122;-75
2021/09/06 06:14:52;;;;;;;6.25;3.13;;;10.00;99.90;;;;;;5037701;28;20042;-75
2021/09/06 06:17:18;;;;;;;4.38;3.47;;;10.10;99.90;;;;;;5020014;28;20045;-73
2021/09/06 06:19:45;;;;;;;6.63;3.97;;;10.20;99.90;;;;;;5040076;28;20045;-75
2021/09/06 06:22:11;;;;;;;3.65;3.33;;;10.30;99.90;;;;;;5030095;28;20053;-76
2021/09/06 06:24:37;;;;;;;11.43;4.28;;;10.50;99.90;;;;;;5029096;28;20033;-76
2021/09/06 06:27:03;;;;;;;7.00;2.92;;;10.60;99.90;;;;;;5034835;28;20041;-75
2021/09/06 06:29:29;;;;;;;6.68;3.97;;;10.80;99.90;;;;;;5024017;28;20060;-76
2021/09/06 06:31:55;;;;;;;7.35;4.15;;;11.00;99.90;;;;;;5028486;28;20403;-76
2021/09/06 06:34:21;;;;;;;9.90;4.43;;;11.10;99.90;;;;;;5026217;28;20048;-76
2021/09/06 06:36:46;;;;;;;7.95;5.55;;;11.30;99.90;;;;;;5038466;28;20917;-74
2021/09/06 06:39:12;;;;;;;8.23;4.13;;;11.50;99.90;;;;;;5005574;28;20112;-77
2021/09/06 06:41:38;;;;;;;5.60;3.33;;;11.70;99.90;;;;;;5023454;28;20049;-77
2021/09/06 06:44:04;;;;;;;5.90;4.32;;;11.90;99.90;;;;;;5022261;28;20372;-74
2021/09/06 06:46:30;;;;;;;7.07;4.55;;;12.10;99.90;;;;;;5020304;28;20045;-77
2021/09/06 06:48:56;;;;;;;9.55;5.72;;;12.30;99.90;;;;;;5020089;28;20057;-75
2021/09/06 06:51:22;;;;;;;5.32;4.40;;;12.50;99.90;;;;;;5019871;28;20412;-75
2021/09/06 06:53:48;;;;;;;8.95;4.55;;;12.70;99.90;;;;;;5020305;28;20052;-75
2021/09/06 06:56:13;;;;;;;12.00;6.10;;;12.90;99.90;;;;;;5020529;28;20049;-75
2021/09/06 06:58:39;;;;;;;7.63;4.38;;;13.10;99.90;;;;;;5038190;28;20054;-75
2021/09/06 07:01:05;;;;;;;9.63;5.35;;;13.30;99.90;;;;;;5029951;28;20049;-75
2021/09/06 07:03:30;;;;;;;4.70;3.92;;;13.40;99.90;;;;;;5027445;28;20055;-75
2021/09/06 07:05:56;;;;;;;9.63;5.35;;;13.80;99.90;;;;;;5011742;28;21150;-75
2021/09/06 07:08:22;;;;;;;7.82;4.60;;;13.80;99.90;;;;;;5022544;28;20132;-75
2021/09/06 07:10:48;;;;;;;5.97;5.38;;;14.00;99.90;;;;;;5022097;28;20049;-75
2021/09/06 07:13:14;;;;;;;;;;;14.10;99.90;;;;;;5021541;28;20504;-74
2021/09/06 07:15:40;;;;;;;9.20;5.43;;;14.30;99.90;;;;;;5020471;28;19921;-74
2021/09/06 07:18:08;;;;;;;10.07;6.63;;;14.40;99.90;;;;;;4998959;28;20038;-73
2021/09/06 07:20:34;;;;;;;5.93;4.60;;;14.50;99.90;;;;;;5021830;28;20056;-73
2021/09/06 07:23:00;;;;;;;10.25;6.63;;;14.60;99.90;;;;;;5023296;28;20425;-73
2021/09/06 07:25:26;;;;;;;7.35;5.20;;;14.70;99.90;;;;;;5022620;28;20045;-76
2021/09/06 07:27:52;;;;;;;5.88;5.10;;;14.80;99.90;;;;;;5017947;28;20055;-76
2021/09/06 07:30:18;;;;;;;13.45;5.80;;;14.90;99.90;;;;;;5021266;28;20045;-76
2021/09/06 07:32:44;;;;;;;;;;;14.90;99.90;;;;;;4984978;28;20545;-74
2021/09/06 07:35:11;;;;;;;7.07;5.90;;;15.00;99.90;;;;;;5019456;28;19921;-76
2021/09/06 07:37:38;;;;;;;8.48;5.43;;;15.10;99.90;;;;;;5018885;28;20308;-75
2021/09/06 07:40:05;;;;;;;11.05;4.80;;;15.20;99.90;;;;;;5021741;28;20111;-76
2021/09/06 07:42:31;;;;;;;8.15;5.05;;;15.30;99.90;;;;;;5004108;28;20126;-76
2021/09/06 07:44:56;;;;;;;7.75;5.35;;;15.40;99.90;;;;;;5023542;28;20048;-78
2021/09/06 07:47:22;;;;;;;;;;;15.50;99.90;;;;;;5023719;28;20068;-78
2021/09/06 07:49:48;;;;;;;5.30;4.10;;;15.50;99.90;;;;;;5018707;28;19920;-73
2021/09/06 07:52:13;;;;;;;;;;;15.70;99.90;;;;;;5021465;28;20541;-76
2021/09/06 07:54:39;;;;;;;8.43;4.97;;;15.80;99.90;;;;;;5019687;28;19921;-76
2021/09/06 07:57:05;;;;;;;11.30;6.43;;;16.00;99.90;;;;;;5019915;28;20134;-76
2021/09/06 07:59:31;;;;;;;;;;;16.10;99.90;;;;;;5024745;28;20049;-75
2021/09/06 08:01:56;;;;;;;6.50;4.47;;;16.20;99.90;;;;;;5039893;28;19951;-77
2021/09/06 08:04:22;;;;;;;9.10;5.22;;;16.40;99.90;;;;;;5020968;28;20046;-75
2021/09/06 08:06:48;;;;;;;;;;;16.50;99.90;;;;;;5035179;28;20067;-75
2021/09/06 08:09:14;;;;;;;8.15;4.72;;;16.60;99.90;;;;;;5018637;28;19971;-75
2021/09/06 08:11:45;;;;;;;;;;;16.70;99.90;;;;;;5022060;28;20038;-75
2021/09/06 08:14:12;;;;;;;9.77;4.95;;;16.80;99.90;;;;;;5033554;28;19951;-73
2021/09/06 08:16:38;;;;;;;7.95;4.90;;;16.90;99.90;;;;;;5018687;28;20049;-77
2021/09/06 08:19:04;;;;;;;5.10;3.50;;;17.10;99.90;;;;;;5005436;28;20057;-76
2021/09/06 08:21:31;;;;;;;;;;;17.30;99.90;;;;;;5019897;28;20037;-76
2021/09/06 08:23:58;;;;;;;8.43;4.72;;;17.50;99.90;;;;;;5015431;28;19932;-77
2021/09/06 08:26:25;;;;;;;8.85;4.65;;;17.70;99.90;;;;;;5035158;28;20401;-75
2021/09/06 08:28:51;;;;;;;8.40;4.00;;;17.90;99.90;;;;;;5019776;28;20095;-76
2021/09/06 08:31:16;;;;;;;;;;;18.00;99.90;;;;;;5026852;28;20085;-74
2021/09/06 08:33:42;;;;;;;6.53;3.45;;;18.20;99.90;;;;;;5023923;28;20329;-75
2021/09/06 08:36:09;;;;;;;;;;;18.30;99.90;;;;;;5035945;28;20061;-74
2021/09/06 08:38:36;;;;;;;8.52;4.38;;;18.30;99.90;;;;;;5053477;28;20385;-73
2021/09/06 08:41:02;;;;;;;9.48;3.38;;;18.40;99.90;;;;;;5019776;28;20042;-75
2021/09/06 08:43:29;;;;;;;6.45;3.53;;;18.40;99.90;;;;;;5011012;28;20379;-73
2021/09/06 08:45:55;;;;;;;4.75;3.22;;;18.30;99.90;;;;;;5031513;28;20098;-73
2021/09/06 08:48:21;;;;;;;;;;;18.20;99.90;;;;;;5030980;28;20483;-73
2021/09/06 08:50:47;;;;;;;3.75;2.75;;;18.10;99.90;;;;;;5031300;28;19929;-75
2021/09/06 08:53:13;;;;;;;5.97;2.72;;;18.00;99.90;;;;;;5038666;28;20045;-74
2021/09/06 08:55:39;;;;;;;;;;;18.00;99.90;;;;;;5020730;28;20049;-75
2021/09/06 08:58:06;;;;;;;5.88;3.85;;;18.00;99.90;;;;;;5035069;28;19924;-75
2021/09/06 09:00:32;;;;;;;6.53;3.22;;;18.10;99.90;;;;;;5076541;28;20037;-75
2021/09/06 09:03:00;;;;;;;3.22;2.60;;;18.20;99.90;;;;;;5026719;28;20537;-75
2021/09/06 09:05:26;;;;;;;7.82;3.75;;;18.20;99.90;;;;;;5030546;28;20049;-75
2021/09/06 09:07:57;;;;;;;8.48;4.80;;;18.20;99.90;;;;;;5034048;28;20158;-75
2021/09/06 09:10:31;;;;;;;7.43;3.90;;;18.30;99.90;;;;;;5031071;28;20049;-75
2021/09/06 09:13:05;;;;;;;8.07;4.97;;;18.40;99.90;;;;;;5026870;28;20053;-74
2021/09/06 09:15:33;;;;;;;7.07;3.35;;;18.40;99.90;;;;;;5057013;28;20107;-74
2021/09/06 09:17:59;;;;;;;7.07;3.67;;;18.50;99.90;;;;;;5020350;28;20129;-74
2021/09/06 09:20:43;;;;;;;7.93;3.47;;;18.60;99.90;;;;;;5033118;28;20094;-74
2021/09/06 09:23:10;;;;;;;8.75;4.78;;;18.70;99.90;;;;;;5040143;28;20395;-74
2021/09/06 09:25:37;;;;;;;8.27;3.78;;;18.80;99.90;;;;;;5029145;28;20037;-73
2021/09/06 09:28:03;;;;;;;5.38;3.38;;;18.90;99.90;;;;;;5028258;28;20051;-73
2021/09/06 09:30:32;;;;;;;8.48;4.22;;;19.10;99.90;;;;;;5049236;28;20487;-74
2021/09/06 09:33:12;;;;;;;7.10;4.10;;;19.10;99.90;;;;;;5031276;28;20413;-74
2021/09/06 09:35:39;;;;;;;6.25;3.53;;;19.30;99.90;;;;;;5014603;28;20099;-74
2021/09/06 09:38:07;;;;;;;8.02;4.15;;;19.20;99.90;;;;;;5038482;28;20049;-77
2021/09/06 09:40:39;;;;;;;4.47;2.45;;;19.40;99.90;;;;;;5015844;28;20045;-76
2021/09/06 09:43:06;;;;;;;4.72;2.95;;;19.50;99.90;;;;;;5019191;28;20460;-77
2021/09/06 09:45:32;;;;;;;5.53;3.08;;;19.60;99.90;;;;;;5031158;28;20041;-75
2021/09/06 09:47:59;;;;;;;3.72;2.30;;;19.80;99.90;;;;;;5012044;28;20041;-75
2021/09/06 09:50:27;;;;;;;4.22;2.88;;;20.00;99.90;;;;;;5030180;28;20103;-74
2021/09/06 09:52:55;;;;;;;4.80;2.65;;;20.10;99.90;;;;;;5036833;28;20073;-75
2021/09/06 09:55:22;;;;;;;5.05;2.85;;;20.30;99.90;;;;;;5033637;28;20048;-74
2021/09/06 09:57:48;;;;;;;3.10;2.38;;;20.60;99.90;;;;;;5030981;28;20053;-76
2021/09/06 10:00:15;;;;;;;6.57;3.17;;;20.80;99.90;;;;;;5066670;28;20094;-76
2021/09/06 10:02:52;;;;;;;5.38;2.70;;;21.20;99.90;;;;;;5028251;28;20986;-74
2021/09/06 10:05:24;;;;;;;4.30;2.05;;;21.60;99.90;;;;;;5030995;28;20474;-74
2021/09/06 10:07:51;;;;;;;4.47;2.30;;;22.00;99.90;;;;;;5031804;28;20177;-74
2021/09/06 10:10:20;;;;;;;6.88;2.95;;;22.30;99.90;;;;;;5032047;28;20049;-74
2021/09/06 10:13:08;;;;;;;4.38;2.63;;;22.40;99.90;;;;;;5031763;28;20056;-76
2021/09/06 10:15:36;;;;;;;5.55;3.03;;;22.40;99.90;;;;;;5046112;28;20155;-75
2021/09/06 10:18:20;;;;;;;4.40;2.97;;;22.40;99.90;;;;;;5017210;28;20064;-76
2021/09/06 10:20:47;;;;;;;6.80;2.63;;;22.30;99.90;;;;;;5044923;28;20052;-75
2021/09/06 10:23:13;;;;;;;4.90;3.03;;;22.20;99.90;;;;;;5043418;28;20084;-76
2021/09/06 10:25:43;;;;;;;4.35;2.60;;;22.20;99.90;;;;;;5039698;28;20735;-74
2021/09/06 10:28:16;;;;;;;4.20;2.75;;;22.20;99.90;;;;;;5036948;28;20044;-75
2021/09/06 10:30:48;;;;;;;6.38;3.10;;;22.20;99.90;;;;;;5030643;28;20049;-75
2021/09/06 10:33:34;;;;;;;4.85;2.70;;;22.20;99.90;;;;;;5020819;28;20056;-74
2021/09/06 10:36:30;;;;;;;8.75;2.17;;;22.20;99.90;;;;;;5031788;28;20467;-75
2021/09/06 10:39:08;;;;;;;8.45;2.38;;;22.20;99.90;;;;;;5027728;28;20415;-74
2021/09/06 10:41:48;;;;;;;6.85;3.17;;;22.20;99.90;;;;;;5013015;28;20112;-77
2021/09/06 10:44:15;;;;;;;3.00;2.33;;;22.20;99.90;;;;;;5009037;28;20042;-75
2021/09/06 10:46:55;;;;;;;5.15;3.20;;;22.30;99.90;;;;;;5022855;28;20124;-75
2021/09/06 10:49:26;;;;;;;6.05;2.50;;;22.30;99.90;;;;;;5028117;28;20049;-75
2021/09/06 10:51:56;;;;;;;3.88;2.15;;;22.30;99.90;;;;;;5030747;28;20490;-76
2021/09/06 10:54:22;;;;;;;4.00;2.30;;;22.10;99.90;;;;;;5033943;28;20046;-75
2021/09/06 10:56:47;;;;;;;4.78;2.17;;;21.90;99.90;;;;;;5019364;28;20533;-75
2021/09/06 10:59:13;;;;;;;2.80;1.90;;;21.70;99.90;;;;;;5028678;28;20053;-76
2021/09/06 11:01:39;;;;;;;3.17;2.15;;;21.50;99.90;;;;;;5033070;28;20172;-75
2021/09/06 11:04:06;;;;;;;5.03;2.13;;;21.40;99.90;;;;;;5017930;28;20116;-76
2021/09/06 11:06:31;;;;;;;5.65;2.28;;;21.30;99.90;;;;;;4993510;28;20056;-76
2021/09/06 11:09:00;;;;;;;2.38;1.95;;;21.30;99.90;;;;;;5027356;28;20037;-78
2021/09/06 11:11:31;;;;;;;3.92;2.50;;;21.30;99.90;;;;;;5033545;28;20064;-77
2021/09/06 11:13:57;;;;;;;4.90;2.90;;;21.20;99.90;;;;;;5029531;28;20437;-76
2021/09/06 11:16:38;;;;;;;3.92;1.90;;;21.10;99.90;;;;;;5032177;28;20045;-77
2021/09/06 11:19:12;;;;;;;4.55;2.15;;;21.10;99.90;;;;;;5037942;28;20486;-75
2021/09/06 11:21:38;;;;;;;3.90;2.58;;;21.20;99.90;;;;;;5013258;28;20052;-76
2021/09/06 11:24:04;;;;;;;2.85;2.47;;;21.40;99.90;;;;;;5029540;28;20386;-75
2021/09/06 11:26:31;;;;;;;3.92;2.35;;;21.60;99.90;;;;;;5028461;28;20049;-76
2021/09/06 11:28:57;;;;;;;3.72;2.42;;;21.90;99.90;;;;;;5025592;28;20188;-76
2021/09/06 11:31:24;;;;;;;4.80;2.42;;;22.10;99.90;;;;;;5030857;28;20130;-75
2021/09/06 11:34:04;;;;;;;2.65;1.77;;;22.30;99.90;;;;;;5039176;28;20041;-75
2021/09/06 11:36:30;;;;;;;4.07;2.67;;;22.40;99.90;;;;;;5039061;28;20115;-78
2021/09/06 11:38:57;;;;;;;8.88;3.20;;;22.40;99.90;;;;;;5026300;28;20052;-76
2021/09/06 11:41:23;;;;;;;4.95;2.72;;;22.40;99.90;;;;;;5040499;28;20067;-75
2021/09/06 11:43:50;;;;;;;4.35;2.38;;;22.50;99.90;;;;;;5034291;28;20045;-74
2021/09/06 11:46:16;;;;;;;5.22;2.92;;;22.70;99.90;;;;;;5035563;28;20041;-75
2021/09/06 11:48:50;;;;;;;4.97;2.80;;;22.80;99.90;;;;;;5036707;28;20053;-75
2021/09/06 11:51:17;;;;;;;5.72;2.67;;;22.80;99.90;;;;;;5024361;28;20056;-77
2021/09/06 11:54:00;;;;;;;4.15;2.50;;;22.80;99.90;;;;;;4991796;28;20060;-76
2021/09/06 11:56:27;;;;;;;6.00;2.92;;;22.90;99.90;;;;;;5049533;28;20052;-75
2021/09/06 11:58:56;;;;;;;4.95;3.25;;;22.90;99.90;;;;;;5026924;28;20102;-75
2021/09/06 12:01:23;;;;;;;5.18;2.78;;;23.10;99.90;;;;;;5023565;28;20048;-74
2021/09/06 12:03:49;;;;;;;6.15;2.70;;;23.30;99.90;;;;;;5057688;28;20087;-76
2021/09/06 12:06:17;;;;;;;5.22;2.88;;;23.50;99.90;;;;;;5025848;28;20033;-75
2021/09/06 12:08:55;;;;;;;7.22;2.45;;;23.70;99.90;;;;;;5040461;28;20098;-75
2021/09/06 12:11:21;;;;;;;7.45;2.35;;;23.70;99.80;;;;;;5019432;28;20060;-76
2021/09/06 12:13:57;;;;;;;4.45;3.05;;;23.60;99.90;;;;;;5013126;28;20045;-75
2021/09/06 12:16:30;;;;;;;4.40;2.38;;;23.60;99.90;;;;;;5005984;28;20050;-74
2021/09/06 12:18:57;;;;;;;3.45;2.33;;;23.40;99.90;;;;;;5035102;28;20459;-75
2021/09/06 12:21:24;;;;;;;4.03;2.10;;;23.30;99.90;;;;;;5022782;28;20081;-76
2021/09/06 12:24:02;;;;;;;5.63;2.40;;;23.10;99.90;;;;;;5028541;28;20056;-74
2021/09/06 12:26:40;;;;;;;3.08;2.10;;;23.10;99.90;;;;;;5025759;28;20443;-75
2021/09/06 12:29:06;;;;;;;3.40;1.90;;;23.10;99.90;;;;;;5029954;28;20621;-75
2021/09/06 12:31:45;;;;;;;3.10;2.28;;;23.30;99.90;;;;;;5025960;28;20533;-75
2021/09/06 12:34:12;;;;;;;3.92;2.38;;;23.50;99.90;;;;;;5016514;28;20041;-75
2021/09/06 12:36:38;;;;;;;4.15;2.15;;;23.40;99.90;;;;;;5013237;28;20045;-78
2021/09/06 12:39:04;;;;;;;4.82;2.20;;;23.80;99.90;;;;;;5026274;28;20125;-76
2021/09/06 12:41:30;;;;;;;5.72;2.38;;;23.90;99.90;;;;;;5018440;28;20140;-75
2021/09/06 12:43:57;;;;;;;3.22;2.15;;;23.80;99.90;;;;;;5005756;28;20052;-74
2021/09/06 12:46:23;;;;;;;3.83;1.70;;;23.80;99.90;;;;;;5014100;28;20120;-74
2021/09/06 12:48:49;;;;;;;4.57;2.47;;;23.80;99.90;;;;;;5030188;28;20045;-75
2021/09/06 12:51:15;;;;;;;8.10;1.98;;;23.60;99.90;;;;;;5029324;28;20045;-75
2021/09/06 12:53:40;;;;;;;7.03;1.98;;;23.50;99.90;;;;;;5016191;28;20486;-75